Time;durP1;ratioP1;P1;durP2;ratioP2;P2;SDS_P1;SDS_P2;PMS_P1;PMS_P2;Temp;Humidity;BMP_temperature;BMP_pressure;BME280_temperature;BME280_humidity;BME280_pressure;Samples;Min_cycle;Max_cycle;Signal;HPM_P1;HPM_P2
2021/09/11 00:01:10;;;;;;;8.95;3.98;;;;;;;20.01;65.16;100169.80;2814286;84;21049;-62
2021/09/11 00:05:25;;;;;;;8.93;3.77;;;;;;;20.01;65.18;100168.45;2814807;84;21122;-62
2021/09/11 00:09:27;;;;;;;6.95;3.70;;;;;;;19.98;65.24;100171.00;2814107;83;21075;-61
2021/09/11 00:13:32;;;;;;;6.15;3.47;;;;;;;19.97;65.18;100162.59;2813800;83;20968;-59
2021/09/11 00:17:36;;;;;;;6.62;4.22;;;;;;;19.96;65.19;100162.27;2814491;84;20971;-64
2021/09/11 00:21:39;;;;;;;5.50;4.00;;;;;;;19.95;65.08;100164.14;2858483;82;21083;-59
2021/09/11 00:25:43;;;;;;;8.78;4.00;;;;;;;19.93;65.09;100163.47;2862089;82;20992;-59
2021/09/11 00:30:08;;;;;;;8.28;4.05;;;;;;;19.90;65.29;100161.12;2862347;83;21039;-59
2021/09/11 00:34:10;;;;;;;5.87;3.75;;;;;;;19.87;65.69;100166.09;2862359;82;21019;-61
2021/09/11 00:38:14;;;;;;;8.08;4.42;;;;;;;19.84;65.59;100170.81;2861956;83;20953;-64
2021/09/11 00:42:21;;;;;;;7.15;4.35;;;;;;;19.79;65.66;100156.24;2862660;82;20980;-62
2021/09/11 00:46:23;;;;;;;3.83;3.45;;;;;;;19.74;65.84;100155.45;2862499;82;21020;-60
2021/09/11 00:50:25;;;;;;;8.73;3.52;;;;;;;19.70;66.25;100159.03;2862466;83;21023;-59
2021/09/11 00:54:49;;;;;;;6.10;4.17;;;;;;;19.69;66.11;100156.02;2862725;83;20988;-59
2021/09/11 00:58:51;;;;;;;6.58;4.00;;;;;;;19.70;65.81;100151.47;2862187;82;21059;-61
2021/09/11 01:02:55;;;;;;;10.43;2.85;;;;;;;19.72;65.63;100158.86;2862307;82;21027;-60
2021/09/11 01:06:59;;;;;;;7.58;3.90;;;;;;;19.74;65.66;100153.25;2862064;82;21011;-60
2021/09/11 01:11:01;;;;;;;5.47;3.77;;;;;;;19.72;65.76;100156.16;2861778;83;21342;-60
2021/09/11 01:15:08;;;;;;;4.03;3.20;;;;;;;19.72;65.88;100156.66;2862689;83;20964;-61
2021/09/11 01:19:11;;;;;;;7.37;3.60;;;;;;;19.71;65.83;100157.19;2862204;83;20936;-60
2021/09/11 01:23:13;;;;;;;10.60;3.52;;;;;;;19.71;65.85;100153.14;2862071;83;21046;-64
2021/09/11 01:27:19;;;;;;;7.70;3.52;;;;;;;19.70;65.91;100152.28;2862524;82;21011;-63
2021/09/11 01:31:21;;;;;;;3.75;3.37;;;;;;;19.70;65.74;100149.59;2862657;83;20960;-62
2021/09/11 01:35:27;;;;;;;4.22;3.62;;;;;;;19.68;65.67;100153.52;2862481;82;21000;-59
2021/09/11 01:39:31;;;;;;;8.48;3.72;;;;;;;19.64;65.60;100150.85;2862494;83;21031;-59
2021/09/11 01:43:56;;;;;;;4.75;3.85;;;;;;;19.61;66.12;100152.09;2862372;82;20972;-59
2021/09/11 01:47:59;;;;;;;5.20;3.47;;;;;;;19.48;66.81;100146.02;2859123;82;21146;-62
2021/09/11 01:52:49;;;;;;;5.92;4.03;;;;;;;19.34;67.16;100144.16;2814221;83;20978;-60
2021/09/11 01:56:53;;;;;;;8.95;4.37;;;;;;;19.25;67.37;100137.50;2814711;84;20991;-61
2021/09/11 02:01:19;;;;;;;10.63;4.85;;;;;;;19.11;67.76;100150.49;2814547;83;21025;-61
2021/09/11 02:05:22;;;;;;;5.20;3.95;;;;;;;19.07;68.15;100150.02;2814480;84;20939;-61
2021/09/11 02:09:24;;;;;;;7.40;4.05;;;;;;;19.00;68.92;100146.90;2814395;84;20947;-61
2021/09/11 02:13:27;;;;;;;8.40;4.95;;;;;;;18.95;69.00;100150.11;2814349;83;21042;-60
2021/09/11 02:17:29;;;;;;;9.48;3.52;;;;;;;18.93;69.13;100148.96;2814093;83;21008;-60
2021/09/11 02:21:31;;;;;;;6.72;5.00;;;;;;;18.79;69.84;100147.08;2814057;82;20976;-60
2021/09/11 02:25:35;;;;;;;5.12;4.40;;;;;;;18.63;70.39;100139.99;2814444;84;21078;-60
2021/09/11 02:29:41;;;;;;;4.80;4.15;;;;;;;18.56;70.77;100144.73;2813995;84;21067;-61
2021/09/11 02:33:43;;;;;;;3.80;3.50;;;;;;;18.49;71.03;100142.98;2832431;82;21007;-58
2021/09/11 02:37:48;;;;;;;8.23;3.98;;;;;;;18.50;71.01;100144.13;2814229;83;21008;-59
2021/09/11 02:41:50;;;;;;;6.95;4.87;;;;;;;18.55;70.67;100148.98;2813146;83;21286;-61
2021/09/11 02:45:52;;;;;;;12.82;5.58;;;;;;;18.53;70.67;100149.67;2814102;83;20991;-62
2021/09/11 02:50:36;;;;;;;26.70;8.10;;;;;;;18.55;70.74;100155.72;2813823;83;21014;-61
2021/09/11 02:54:43;;;;;;;10.32;4.53;;;;;;;18.48;71.17;100148.05;2814376;82;21012;-63
2021/09/11 02:58:45;;;;;;;7.35;4.75;;;;;;;18.33;72.20;100143.44;2814018;83;20956;-63
2021/09/11 03:02:47;;;;;;;6.70;4.45;;;;;;;18.29;72.25;100146.66;2813757;82;21050;-61
2021/09/11 03:07:52;;;;;;;8.25;4.58;;;;;;;18.27;72.37;100152.22;2813697;83;21016;-62
2021/09/11 03:11:55;;;;;;;5.72;4.78;;;;;;;18.29;72.10;100152.05;2814326;84;20968;-61
2021/09/11 03:16:03;;;;;;;6.30;4.08;;;;;;;18.21;72.38;100151.10;2813495;83;21039;-62
2021/09/11 03:20:07;;;;;;;11.28;6.58;;;;;;;18.21;72.82;100154.28;2832173;83;21004;-62
2021/09/11 03:24:08;;;;;;;7.62;5.05;;;;;;;18.29;72.69;100155.59;2814387;84;21081;-60
2021/09/11 03:28:55;;;;;;;6.90;4.10;;;;;;;18.32;72.80;100147.16;2814058;82;21035;-62
2021/09/11 03:32:57;;;;;;;6.07;4.87;;;;;;;18.39;72.55;100149.44;2814079;84;21027;-63
2021/09/11 03:37:02;;;;;;;8.60;5.10;;;;;;;18.45;72.44;100147.88;2814283;82;21325;-63
2021/09/11 03:41:04;;;;;;;22.50;4.72;;;;;;;18.38;72.45;100154.50;2814612;82;21003;-62
2021/09/11 03:45:53;;;;;;;9.38;5.95;;;;;;;18.21;73.10;100149.75;2813666;83;21035;-60
2021/09/11 03:49:55;;;;;;;8.05;5.30;;;;;;;18.05;73.61;100142.61;2814666;84;21015;-62
2021/09/11 03:53:58;;;;;;;16.27;6.15;;;;;;;17.90;74.03;100144.39;2814189;82;21054;-62
2021/09/11 03:58:03;;;;;;;13.62;5.80;;;;;;;17.87;74.41;100142.02;2814641;83;20983;-61
2021/09/11 04:02:06;;;;;;;8.87;4.93;;;;;;;17.87;74.79;100142.88;2814201;83;21004;-63
2021/09/11 04:06:09;;;;;;;5.95;5.35;;;;;;;17.90;75.04;100149.77;2813818;82;21039;-62
2021/09/11 04:10:12;;;;;;;7.20;5.25;;;;;;;17.96;74.84;100153.08;2814305;84;21031;-59
2021/09/11 04:14:33;;;;;;;7.75;5.05;;;;;;;18.01;74.50;100151.21;2814624;84;20971;-60
2021/09/11 04:18:36;;;;;;;7.47;5.10;;;;;;;18.02;74.15;100154.27;2832198;81;21043;-59
2021/09/11 04:22:41;;;;;;;16.62;6.80;;;;;;;17.87;74.63;100154.98;2814408;82;21090;-62
2021/09/11 04:26:43;;;;;;;13.68;6.30;;;;;;;17.68;75.47;100156.25;2814583;84;21019;-60
2021/09/11 04:31:12;;;;;;;6.25;4.70;;;;;;;17.49;76.12;100163.75;2814577;84;20983;-63
2021/09/11 04:35:14;;;;;;;9.65;4.47;;;;;;;17.47;76.31;100165.75;2814371;83;21094;-61
2021/09/11 04:39:45;;;;;;;5.35;4.85;;;;;;;17.47;76.51;100159.55;2814692;83;21039;-63
2021/09/11 04:43:47;;;;;;;8.83;5.28;;;;;;;17.40;77.02;100163.44;2814402;83;21067;-63
2021/09/11 04:47:50;;;;;;;7.80;4.75;;;;;;;17.36;77.41;100169.66;2814012;83;21027;-60
2021/09/11 04:51:52;;;;;;;12.10;5.90;;;;;;;17.33;77.76;100167.84;2814247;84;21254;-60
2021/09/11 04:56:01;;;;;;;4.95;4.45;;;;;;;17.49;77.67;100168.28;2820848;82;21023;-62
2021/09/11 05:00:07;;;;;;;11.48;5.62;;;;;;;17.80;77.69;100161.57;2861831;82;20972;-63
2021/09/11 05:04:33;;;;;;;5.00;4.47;;;;;;;18.10;76.83;100173.89;2862814;83;21023;-60
2021/09/11 05:08:37;;;;;;;4.75;4.22;;;;;;;18.42;76.09;100173.83;2862382;82;21031;-64
2021/09/11 05:12:40;;;;;;;9.28;5.42;;;;;;;18.78;75.08;100174.55;2862294;83;20991;-61
2021/09/11 05:17:07;;;;;;;9.08;4.85;;;;;;;19.23;74.93;100180.00;2862345;82;21032;-60
2021/09/11 05:21:11;;;;;;;8.18;5.83;;;;;;;19.84;73.97;100178.09;2862332;82;21206;-61
2021/09/11 05:25:13;;;;;;;8.10;5.45;;;;;;;20.52;72.71;100172.36;2862587;82;20989;-60
2021/09/11 05:29:47;;;;;;;6.22;4.67;;;;;;;21.01;70.03;100177.14;2862383;82;21447;-61
2021/09/11 05:33:52;;;;;;;4.60;4.20;;;;;;;21.28;69.38;100178.67;2862373;82;20992;-62
2021/09/11 05:37:55;;;;;;;7.92;3.80;;;;;;;21.58;67.33;100173.84;2862638;82;21007;-62
2021/09/11 05:41:59;;;;;;;6.15;5.55;;;;;;;21.79;66.29;100186.42;2881454;78;70261;-70
2021/09/11 05:58:44;;;;;;;7.40;5.65;;;;;;;;;;2926529;78;21065;-60
2021/09/11 06:03:10;;;;;;;13.15;6.92;;;;;;;22.04;66.37;100183.70;2926913;78;21026;-59
2021/09/11 06:07:12;;;;;;;;;;;;;;;22.13;66.89;100167.59;2929912;78;21022;-61
2021/09/11 06:11:14;;;;;;;9.78;6.97;;;;;;;22.55;67.34;100167.45;2927287;78;20099;-60
2021/09/11 06:15:29;;;;;;;12.28;5.78;;;;;;;23.08;66.00;100173.88;2927036;81;21053;-63
2021/09/11 06:19:35;;;;;;;8.68;5.33;;;;;;;23.70;64.24;100178.12;2926954;78;21027;-60
2021/09/11 06:52:00;;;;;;;10.05;6.28;;;;;;;24.55;60.35;100201.45;2819469;79;21059;-62
2021/09/11 06:56:13;;;;;;;20.00;7.55;;;;;;;24.71;60.47;100205.53;2854955;82;21059;-60
2021/09/11 07:00:17;;;;;;;6.25;4.47;;;;;;;24.57;60.55;100206.17;2884746;79;21015;-58
2021/09/11 07:04:23;;;;;;;9.08;5.42;;;;;;;24.88;60.53;100197.66;2866555;82;21043;-58
2021/09/11 07:08:26;;;;;;;6.83;5.17;;;;;;;25.17;59.22;100202.63;2885268;79;20977;-59
2021/09/11 07:12:37;;;;;;;9.30;5.95;;;;;;;25.36;59.33;100201.59;2885196;81;21134;-59
2021/09/11 07:16:41;;;;;;;7.87;5.40;;;;;;;25.49;58.84;100204.72;2885018;81;21020;-59
2021/09/11 07:20:47;;;;;;;9.95;5.35;;;;;;;25.68;59.04;100211.52;2885165;82;21078;-61
2021/09/11 07:24:50;;;;;;;9.50;6.95;;;;;;;25.95;59.24;100216.65;2884797;81;20971;-60
2021/09/11 07:28:59;;;;;;;10.85;7.28;;;;;;;26.00;58.65;100217.30;2839957;81;21058;-58
2021/09/11 07:33:06;;;;;;;11.95;7.12;;;;;;;26.01;59.72;100221.17;2860719;81;21029;-59
2021/09/11 07:37:30;;;;;;;17.80;8.93;;;;;;;26.06;59.59;100225.39;2875331;80;21023;-60
2021/09/11 07:41:35;;;;;;;11.12;7.75;;;;;;;26.15;59.94;100225.90;2901607;80;21003;-62
2021/09/11 07:45:39;;;;;;;11.63;8.13;;;;;;;26.10;60.37;100233.40;2846089;82;20994;-62
2021/09/11 07:49:44;;;;;;;26.12;9.88;;;;;;;26.11;60.49;100232.88;2787646;85;20995;-61
2021/09/11 07:54:53;;;;;;;10.10;7.30;;;;;;;26.25;60.99;100234.91;2786719;84;21223;-64
2021/09/11 07:58:58;;;;;;;6.90;6.03;;;;;;;26.33;59.72;100237.84;2787221;82;21257;-62
2021/09/11 08:03:25;;;;;;;9.58;6.47;;;;;;;26.35;60.63;100247.98;2787231;82;21053;-62
2021/09/11 08:07:28;;;;;;;7.22;6.53;;;;;;;26.47;61.18;100234.39;2787599;82;21041;-62
2021/09/11 08:11:31;;;;;;;12.15;6.30;;;;;;;26.42;60.41;100242.44;2781021;82;21045;-61
2021/09/11 08:16:02;;;;;;;9.23;5.80;;;;;;;26.30;60.46;100247.31;2742500;84;20987;-61
2021/09/11 08:20:08;;;;;;;8.48;6.60;;;;;;;26.34;61.33;100247.17;2787336;82;21055;-62
2021/09/11 08:24:17;;;;;;;18.00;8.25;;;;;;;26.27;61.78;100245.05;2792626;85;20987;-62
2021/09/11 08:28:21;;;;;;;12.80;7.53;;;;;;;26.37;62.26;100235.80;2792787;82;21061;-61
2021/09/11 08:32:43;;;;;;;8.78;6.17;;;;;;;26.40;62.27;100237.75;2813788;81;20999;-61
2021/09/11 08:36:46;;;;;;;6.83;5.62;;;;;;;26.49;62.38;100239.08;2834884;84;21019;-60
2021/09/11 08:40:55;;;;;;;10.72;7.00;;;;;;;26.50;62.43;100232.03;2834450;82;21023;-61
2021/09/11 08:44:59;;;;;;;7.83;6.95;;;;;;;26.59;63.39;100238.50;2834994;81;21007;-61
2021/09/11 08:49:10;;;;;;;8.98;7.33;;;;;;;26.67;62.58;100243.64;2834381;80;20987;-63
2021/09/11 08:53:11;;;;;;;8.68;7.00;;;;;;;26.72;62.89;100227.91;2787483;84;20972;-62
2021/09/11 08:57:26;;;;;;;8.40;7.22;;;;;;;26.85;62.36;100229.09;2786789;82;21007;-62
2021/09/11 09:02:15;;;;;;;;;;;;;;;26.97;62.64;100224.19;2789399;85;21034;-61
2021/09/11 09:10:53;;;;;;;9.03;7.87;;;;;;;26.98;61.43;100232.12;2786841;84;21055;-61
2021/09/11 09:15:14;;;;;;;8.43;7.42;;;;;;;27.00;61.85;100233.27;2753092;84;21003;-62
2021/09/11 09:19:22;;;;;;;9.28;6.55;;;;;;;27.06;61.68;100233.67;2786942;84;21026;-63
2021/09/11 09:24:09;;;;;;;7.10;5.92;;;;;;;27.07;61.77;100249.83;2834515;84;21007;-62
2021/09/11 09:28:14;;;;;;;7.10;5.95;;;;;;;27.03;61.49;100243.19;2787728;84;21038;-63
2021/09/11 09:32:51;;;;;;;7.37;5.85;;;;;;;27.07;61.77;100247.62;2787630;85;20975;-61
2021/09/11 09:36:56;;;;;;;6.78;6.08;;;;;;;27.09;61.49;100253.14;2787397;82;20979;-62
2021/09/11 09:41:11;;;;;;;7.35;6.45;;;;;;;27.30;62.01;100242.70;2784475;82;21054;-63
2021/09/11 09:45:13;;;;;;;6.90;6.20;;;;;;;27.29;61.54;100248.38;2763375;84;20991;-62
2021/09/11 09:49:28;;;;;;;10.50;7.22;;;;;;;27.26;62.06;100246.13;2758127;85;21000;-64
2021/09/11 09:53:29;;;;;;;6.70;5.97;;;;;;;27.21;61.89;100249.56;2757195;86;21011;-61
2021/09/11 09:57:51;;;;;;;13.18;8.48;;;;;;;27.19;63.08;100248.98;2757164;85;21083;-62
2021/09/11 10:01:56;;;;;;;10.70;6.45;;;;;;;27.14;62.22;100253.81;2757430;84;20992;-61
2021/09/11 10:06:04;;;;;;;;;;;;;;;27.03;63.37;100248.64;2824772;84;20991;-61
2021/09/11 10:10:08;;;;;;;6.95;5.75;;;;;;;27.02;63.73;100257.91;2817344;82;20106;-62
2021/09/11 10:14:15;;;;;;;7.92;6.37;;;;;;;26.97;64.28;100259.67;2787924;82;20983;-62
2021/09/11 10:18:44;;;;;;;13.50;6.10;;;;;;;27.03;64.10;100254.63;2804329;82;21780;-63
2021/09/11 10:23:24;;;;;;;7.50;6.50;;;;;;;27.07;62.30;100256.65;2791117;84;21299;-60
2021/09/11 10:27:38;;;;;;;8.60;5.78;;;;;;;27.14;62.08;100259.27;2855153;82;21399;-60
2021/09/11 10:32:19;;;;;;;10.20;6.42;;;;;;;27.21;62.99;100262.70;2792983;84;21082;-61
2021/09/11 10:36:59;;;;;;;7.80;5.90;;;;;;;27.28;63.32;100264.47;2792861;84;21057;-60
2021/09/11 10:41:13;;;;;;;30.37;9.63;;;;;;;27.21;61.50;100262.70;2807202;84;20983;-61
2021/09/11 10:45:45;;;;;;;9.60;7.83;;;;;;;27.08;61.49;100276.57;2758073;84;21043;-62
2021/09/11 10:49:47;;;;;;;7.78;6.95;;;;;;;27.01;63.00;100281.33;2819793;83;20991;-61
2021/09/11 10:54:09;;;;;;;8.75;5.78;;;;;;;27.07;63.29;100276.28;2779881;82;20981;-60
2021/09/11 10:58:26;;;;;;;14.07;7.12;;;;;;;27.09;62.66;100267.31;2805329;81;21022;-63
2021/09/11 11:02:36;;;;;;;7.45;5.03;;;;;;;26.99;62.61;100279.37;2783493;85;20977;-61
2021/09/11 11:06:40;;;;;;;6.42;5.60;;;;;;;26.95;62.40;100273.53;2786230;83;20982;-60
2021/09/11 11:10:44;;;;;;;12.80;5.72;;;;;;;26.98;63.03;100279.89;2791736;85;21006;-61
2021/09/11 11:14:48;;;;;;;17.00;6.80;;;;;;;27.17;63.70;100271.59;2764502;82;21272;-60
2021/09/11 11:23:02;;;;;;;8.40;7.60;;;;;;;27.02;63.77;100266.09;2829471;82;21112;-62
2021/09/11 11:54:51;;;;;;;7.05;5.22;;;;;;;26.97;64.42;100233.19;2923906;80;21057;-60
2021/09/11 11:59:03;;;;;;;;;;;;;;;27.02;64.13;100229.24;2929145;79;20954;-60
2021/09/11 12:03:07;;;;;;;8.25;6.83;;;;;;;27.02;63.82;100228.40;2926462;81;20068;-63
2021/09/11 12:07:10;;;;;;;8.25;6.80;;;;;;;27.07;64.36;100223.05;2873344;81;21030;-63
2021/09/11 12:11:54;;;;;;;14.28;8.50;;;;;;;27.15;64.54;100226.80;2884711;81;21191;-61
2021/09/11 12:15:58;;;;;;;8.30;7.60;;;;;;;27.25;65.28;100230.82;2922426;81;20937;-65
2021/09/11 12:20:18;;;;;;;9.40;7.78;;;;;;;27.37;65.04;100234.39;2876202;80;20988;-65
2021/09/11 12:24:33;;;;;;;9.50;8.13;;;;;;;27.43;64.52;100222.49;2876558;82;21007;-64
2021/09/11 12:34:08;;;;;;;19.02;12.18;;;;;;;27.25;65.40;100213.08;2825127;84;21296;-63
2021/09/11 12:38:15;;;;;;;10.80;7.95;;;;;;;27.24;65.46;100214.98;2907746;80;20987;-65
2021/09/11 12:42:20;;;;;;;10.63;9.63;;;;;;;27.28;65.79;100213.44;2895962;81;21109;-64
2021/09/11 12:46:48;;;;;;;11.18;8.95;;;;;;;27.41;64.78;100204.16;2893686;81;21041;-65
2021/09/11 12:54:56;;;;;;;16.55;11.30;;;;;;;27.54;63.57;100209.91;2777083;84;21066;-67
2021/09/11 12:59:00;;;;;;;11.97;10.40;;;;;;;27.57;63.59;100203.97;2826725;82;20971;-62
2021/09/11 13:03:14;;;;;;;10.93;9.88;;;;;;;27.57;62.59;100205.88;2827029;83;21059;-64
2021/09/11 13:07:16;;;;;;;;;;;;;;;27.57;62.42;100202.59;2819143;82;21130;-62
2021/09/11 13:11:25;;;;;;;11.78;9.95;;;;;;;27.53;62.40;100194.59;2824152;84;20083;-66
2021/09/11 13:15:27;;;;;;;12.00;8.75;;;;;;;27.47;62.89;100193.63;2775114;83;21023;-66
2021/09/11 13:19:29;;;;;;;16.82;10.82;;;;;;;27.47;63.81;100190.08;2775266;84;21000;-62
2021/09/11 13:23:31;;;;;;;8.08;7.33;;;;;;;27.49;62.60;100188.75;2775095;86;20963;-64
2021/09/11 13:27:34;;;;;;;9.98;8.28;;;;;;;27.54;62.88;100189.98;2763751;84;21066;-65
2021/09/11 13:31:53;;;;;;;9.00;7.62;;;;;;;27.51;62.33;100184.42;2820370;84;21007;-65
2021/09/11 13:35:54;;;;;;;10.50;7.62;;;;;;;27.46;61.52;100181.04;2828260;82;21054;-65
2021/09/11 13:39:56;;;;;;;8.05;7.25;;;;;;;27.41;61.87;100185.04;2777842;85;21019;-65
2021/09/11 13:43:58;;;;;;;10.45;7.65;;;;;;;27.39;62.16;100177.62;2831498;83;22080;-66
2021/09/11 13:48:02;;;;;;;17.02;7.90;;;;;;;27.40;62.50;100186.11;2822951;82;21050;-64
2021/09/11 13:52:07;;;;;;;8.43;7.58;;;;;;;27.36;62.07;100187.67;2802369;83;21006;-66
2021/09/11 13:56:09;;;;;;;14.05;9.18;;;;;;;27.27;61.73;100187.72;2791980;84;20967;-65
2021/09/11 14:00:13;;;;;;;12.05;7.75;;;;;;;27.27;62.69;100183.63;2809212;81;21046;-65
2021/09/11 14:04:52;;;;;;;7.67;6.72;;;;;;;27.38;60.91;100178.70;2789072;85;21075;-65
2021/09/11 14:08:54;;;;;;;6.85;6.22;;;;;;;27.48;60.04;100176.16;2733522;85;21065;-64
2021/09/11 14:12:56;;;;;;;13.03;7.12;;;;;;;27.44;60.11;100168.16;2748602;81;21065;-61
2021/09/11 14:17:13;;;;;;;7.83;6.97;;;;;;;27.49;59.42;100166.90;2836386;84;21089;-60
2021/09/11 14:21:15;;;;;;;5.75;5.20;;;;;;;27.53;59.08;100161.01;2828042;81;21015;-62
2021/09/11 14:25:20;;;;;;;63.40;15.23;;;;;;;27.68;58.56;100169.48;2828726;81;21074;-63
2021/09/11 14:29:23;;;;;;;6.92;6.25;;;;;;;27.79;58.96;100178.71;2828582;84;21094;-61
2021/09/11 14:33:26;;;;;;;10.45;7.85;;;;;;;27.69;57.94;100177.16;2828122;84;21011;-60
2021/09/11 14:37:28;;;;;;;8.00;6.80;;;;;;;27.59;58.35;100178.59;2828589;84;21065;-57
2021/09/11 14:41:30;;;;;;;59.13;18.02;;;;;;;27.59;59.02;100179.97;2828477;83;21015;-58
2021/09/11 14:45:40;;;;;;;6.35;5.03;;;;;;;27.69;57.58;100177.97;2828242;84;20947;-61
2021/09/11 14:49:43;;;;;;;7.62;6.60;;;;;;;27.82;56.75;100177.41;2828433;83;20995;-64
2021/09/11 14:54:05;;;;;;;9.05;6.92;;;;;;;27.96;56.34;100170.58;2828198;83;21016;-62
2021/09/11 14:58:08;;;;;;;8.18;6.50;;;;;;;27.98;56.57;100168.43;2827998;84;21047;-58
2021/09/11 15:02:12;;;;;;;6.00;4.87;;;;;;;27.97;57.02;100170.88;2797223;84;34507;-59
2021/09/11 15:06:14;;;;;;;45.38;12.70;;;;;;;27.89;55.53;100172.61;2828562;81;21031;-59
2021/09/11 15:10:44;;;;;;;15.85;6.47;;;;;;;27.80;56.08;100168.92;2828015;84;20986;-59
2021/09/11 15:14:46;;;;;;;4.83;3.47;;;;;;;27.70;56.88;100164.61;2828736;84;21078;-58
2021/09/11 15:18:48;;;;;;;3.55;3.25;;;;;;;27.54;56.38;100159.38;2828577;84;21042;-58
2021/09/11 15:23:15;;;;;;;18.35;5.12;;;;;;;27.45;56.51;100158.09;2828162;81;21117;-58
2021/09/11 15:27:19;;;;;;;6.12;3.90;;;;;;;27.46;56.47;100151.55;2828549;83;20999;-57
2021/09/11 15:31:23;;;;;;;10.32;4.05;;;;;;;27.49;56.01;100150.51;2828620;84;21043;-61
2021/09/11 15:35:25;;;;;;;4.72;4.08;;;;;;;27.60;57.01;100148.03;2828698;81;21061;-61
2021/09/11 15:39:52;;;;;;;8.10;4.58;;;;;;;27.59;57.16;100140.91;2828372;83;21517;-58
2021/09/11 15:43:54;;;;;;;5.47;3.83;;;;;;;27.60;57.44;100139.83;2828572;84;21034;-59
2021/09/11 15:47:56;;;;;;;5.42;3.85;;;;;;;27.56;57.12;100140.84;2828422;83;21062;-61
2021/09/11 15:52:38;;;;;;;3.52;3.05;;;;;;;27.34;56.98;100144.76;2828586;84;20987;-59
2021/09/11 15:56:40;;;;;;;3.50;3.15;;;;;;;27.01;56.23;100146.22;2828867;81;21023;-57
2021/09/11 16:00:42;;;;;;;3.83;3.37;;;;;;;26.61;57.17;100145.84;2828655;82;21003;-63
2021/09/11 16:04:47;;;;;;;3.95;2.98;;;;;;;26.33;58.12;100145.16;2828543;83;21003;-58
2021/09/11 16:08:49;;;;;;;4.80;4.40;;;;;;;26.09;58.77;100147.80;2828601;81;21078;-61
2021/09/11 16:12:52;;;;;;;3.65;3.10;;;;;;;25.82;59.61;100144.08;2828252;83;21003;-59
2021/09/11 16:16:54;;;;;;;3.65;2.80;;;;;;;25.56;60.55;100153.45;2828627;84;21164;-56
2021/09/11 16:21:07;;;;;;;4.92;4.00;;;;;;;25.33;61.03;100149.48;2828426;84;21022;-61
2021/09/11 16:25:11;;;;;;;4.75;3.50;;;;;;;25.13;61.99;100142.91;2828567;84;21007;-58
2021/09/11 16:29:31;;;;;;;4.80;3.98;;;;;;;24.95;62.22;100145.37;2828586;84;20955;-58
2021/09/11 16:33:33;;;;;;;6.53;3.20;;;;;;;24.87;62.85;100152.48;2828757;84;21007;-58
2021/09/11 16:37:35;;;;;;;4.42;3.65;;;;;;;24.73;63.81;100149.55;2828720;84;20963;-63
2021/09/11 16:41:52;;;;;;;5.90;3.25;;;;;;;24.58;64.41;100152.09;2828595;82;21055;-60
2021/09/11 16:45:54;;;;;;;9.38;4.60;;;;;;;24.38;65.26;100156.32;2829074;81;20983;-56
2021/09/11 16:50:35;;;;;;;5.83;4.65;;;;;;;24.22;65.92;100157.16;2828959;84;21282;-62
2021/09/11 16:54:36;;;;;;;10.13;5.42;;;;;;;24.07;66.40;100157.98;2828360;84;21003;-62
2021/09/11 16:58:38;;;;;;;10.48;6.12;;;;;;;23.87;67.19;100152.65;2800775;83;21014;-61
2021/09/11 17:02:43;;;;;;;12.05;6.60;;;;;;;23.72;68.00;100154.30;2828752;84;21034;-61
2021/09/11 17:06:52;;;;;;;7.30;5.75;;;;;;;23.58;68.73;100160.29;2828601;81;20995;-57
2021/09/11 17:15:06;;;;;;;7.17;5.10;;;;;;;23.28;69.66;100168.42;2851066;80;21109;-62
2021/09/11 17:19:11;;;;;;;8.68;5.47;;;;;;;23.12;70.47;100169.70;2808161;81;21043;-59
2021/09/11 17:23:13;;;;;;;10.25;5.17;;;;;;;23.01;70.67;100175.78;2808639;81;20987;-61
2021/09/11 17:27:35;;;;;;;45.92;9.05;;;;;;;22.91;71.36;100176.22;2808316;81;21027;-63
2021/09/11 17:31:38;;;;;;;15.60;5.70;;;;;;;22.82;71.72;100172.87;2710460;86;21076;-59
2021/09/11 17:35:40;;;;;;;16.20;6.72;;;;;;;22.75;71.78;100172.87;2676339;89;21022;-58
2021/09/11 17:39:42;;;;;;;17.25;8.18;;;;;;;22.65;72.24;100176.02;2676433;86;20959;-57
2021/09/11 17:43:44;;;;;;;10.72;5.70;;;;;;;22.53;72.88;100185.80;2676440;89;21002;-58
2021/09/11 17:47:47;;;;;;;7.78;5.12;;;;;;;22.37;73.53;100186.47;2721125;87;20987;-57
2021/09/11 17:51:49;;;;;;;11.08;6.90;;;;;;;22.23;74.21;100201.05;2676436;87;21018;-62
2021/09/11 17:55:51;;;;;;;30.62;10.05;;;;;;;22.13;75.15;100204.66;2675710;85;21058;-61
2021/09/11 17:59:53;;;;;;;84.47;15.75;;;;;;;22.08;75.44;100217.45;2677058;85;21002;-60
2021/09/11 18:03:56;;;;;;;38.05;10.05;;;;;;;22.03;75.76;100219.45;2820412;83;21356;-58
2021/09/11 18:07:59;;;;;;;15.58;7.08;;;;;;;21.94;75.82;100219.30;2780211;82;21000;-58
2021/09/11 18:12:01;;;;;;;8.10;6.58;;;;;;;21.81;76.18;100227.70;2779766;83;21016;-60
2021/09/11 18:16:22;;;;;;;7.85;6.70;;;;;;;21.58;77.60;100232.52;2780063;82;21305;-57
2021/09/11 18:20:28;;;;;;;18.12;8.60;;;;;;;21.46;79.87;100231.75;2779838;83;21002;-58
2021/09/11 18:24:31;;;;;;;46.42;13.95;;;;;;;21.47;80.35;100230.71;2779225;84;21036;-57
2021/09/11 18:28:36;;;;;;;17.92;9.98;;;;;;;21.38;80.00;100230.53;2779807;85;21053;-59
2021/09/11 18:32:45;;;;;;;51.45;16.40;;;;;;;21.30;80.33;100238.82;2780247;83;21004;-58
2021/09/11 18:36:47;;;;;;;8.53;6.62;;;;;;;21.29;80.37;100246.09;2779547;82;21055;-57
2021/09/11 18:40:52;;;;;;;19.98;9.40;;;;;;;21.29;80.89;100233.09;2780019;82;21012;-61
2021/09/11 18:44:55;;;;;;;10.50;7.25;;;;;;;21.29;81.87;100241.21;2780146;82;21456;-58
2021/09/11 18:48:57;;;;;;;10.20;7.37;;;;;;;21.29;82.36;100243.91;2779640;85;21067;-61
2021/09/11 18:53:00;;;;;;;10.28;7.28;;;;;;;21.32;82.47;100244.87;2779601;82;21037;-61
2021/09/11 18:57:08;;;;;;;8.15;7.42;;;;;;;21.37;82.15;100245.10;2778776;84;21097;-57
2021/09/11 19:01:10;;;;;;;12.53;8.35;;;;;;;21.38;81.92;100250.83;2779291;84;21030;-57
2021/09/11 19:05:20;;;;;;;12.25;8.88;;;;;;;21.43;81.92;100260.56;2778912;83;21022;-57
2021/09/11 19:09:22;;;;;;;12.07;7.83;;;;;;;21.39;81.94;100263.32;2779021;83;21011;-56
2021/09/11 19:39:21;;;;;;;12.07;7.87;;;;;;;20.94;85.06;100290.13;2905253;78;70319;-71
2021/09/11 19:43:22;;;;;;;12.70;8.90;;;;;;;21.02;84.78;100289.66;2907046;80;20995;-71
2021/09/11 19:47:24;;;;;;;19.80;9.35;;;;;;;21.03;84.53;100291.34;2906559;82;21018;-71
2021/09/11 19:51:26;;;;;;;10.08;7.72;;;;;;;21.00;84.42;100293.08;2883752;80;21033;-71
2021/09/11 19:55:27;;;;;;;9.83;8.68;;;;;;;20.89;84.48;100289.89;2888532;82;21692;-71
2021/09/11 19:59:29;;;;;;;8.98;7.08;;;;;;;20.73;85.21;100287.41;2906755;82;21026;-72
2021/09/11 20:03:31;;;;;;;12.37;8.20;;;;;;;20.67;85.52;100302.02;2900579;80;20959;-71
2021/09/11 20:07:34;;;;;;;9.98;8.08;;;;;;;20.62;85.42;100296.87;2906888;82;21043;-71
2021/09/11 20:11:36;;;;;;;9.45;8.13;;;;;;;20.67;85.20;100295.27;2906681;82;20990;-72
2021/09/11 20:15:37;;;;;;;10.80;7.87;;;;;;;20.74;84.80;100291.78;2905956;80;21024;-73
2021/09/11 20:19:39;;;;;;;9.43;7.80;;;;;;;20.73;84.59;100288.76;2907345;80;20970;-74
2021/09/11 20:23:41;;;;;;;9.30;8.30;;;;;;;20.68;84.52;100287.48;2908055;82;20983;-74
2021/09/11 20:27:43;;;;;;;10.08;8.48;;;;;;;20.74;84.49;100289.08;2907571;79;21021;-71
2021/09/11 20:31:44;;;;;;;9.95;7.95;;;;;;;20.78;84.38;100284.95;2907263;82;21344;-71
2021/09/11 20:35:47;;;;;;;11.97;7.80;;;;;;;20.81;84.08;100279.19;2907540;80;20961;-75
2021/09/11 20:39:50;;;;;;;8.88;7.35;;;;;;;20.88;84.09;100282.81;2907033;79;21005;-72
2021/09/11 20:43:51;;;;;;;8.25;6.95;;;;;;;20.92;83.58;100285.94;2906809;81;21002;-72
2021/09/11 20:47:53;;;;;;;9.95;8.13;;;;;;;20.95;83.43;100287.75;2907484;79;21081;-71
2021/09/11 20:51:55;;;;;;;10.88;9.10;;;;;;;20.95;83.28;100285.58;2848032;80;20958;-73
2021/09/11 20:55:56;;;;;;;14.33;8.68;;;;;;;20.96;82.78;100287.25;2857408;83;20975;-73
2021/09/11 21:16:51;;;;;;;13.65;9.15;;;;;;;20.74;83.50;100287.73;2855718;81;21076;-72
2021/09/11 21:20:53;;;;;;;9.93;8.25;;;;;;;20.68;83.20;100283.92;2859295;81;21028;-71
2021/09/11 21:24:55;;;;;;;16.77;10.13;;;;;;;20.61;83.58;100293.84;2859831;82;21007;-71
2021/09/11 21:28:57;;;;;;;11.22;8.60;;;;;;;20.59;83.85;100291.32;2867243;82;21087;-72